Ashburnham, Massachusetts
Current Conditions -  °F | °C
As of 4:52 PM on Friday 31 Oct 2014 (Local Time) from KFIT Reporting Station
Overcast Overcast  
Wind Chill: 51°   Ceiling: 3900
Heat Index: 51°   Visibility: 10mi
Dew Point: 35°   Wind: 6mph
Humidity: 54%   Direction: 60°ENE
Pressure: 29.99"   Gusts: NA
Location:  42.64°N, 71.91°W
Report Text: KFIT 312052Z AUTO 06005KT 10SM BKN039 OVC065 11/02 A2999 RMK AO2 SLP156 T01060017 55003
Loading
Personal Weather Stations






























Interactive Weather Map New forecast layout! Learn more

10-Day Weather Forecast

Advertisements
Track Severe Weather on mobile